createdAt,value
2023-02-26T00:04:57.498Z,101810.94
2023-02-26T00:10:02.661Z,101813.31
2023-02-26T00:15:13.163Z,101827.03
2023-02-26T00:20:20.709Z,101816.75
2023-02-26T00:25:24.743Z,101821.78
2023-02-26T00:30:29.772Z,101829.38
2023-02-26T00:35:36.457Z,101841.13
2023-02-26T00:40:44.891Z,101853.63
2023-02-26T00:45:58.386Z,101861.13
2023-02-26T00:51:11.578Z,101854.66
2023-02-26T00:56:16.158Z,101870.84
2023-02-26T01:01:20.299Z,101870.06
2023-02-26T01:06:30.160Z,101876.88
2023-02-26T01:11:37.562Z,101882.88
2023-02-26T01:16:52.768Z,101872.63
2023-02-26T01:22:06.277Z,101877.88
2023-02-26T01:27:10.660Z,101889.09
2023-02-26T01:32:23.132Z,101891.03
2023-02-26T01:37:35.846Z,101896.28
2023-02-26T01:42:45.489Z,101904.22
2023-02-26T01:47:58.196Z,101908.81
2023-02-26T01:53:24.297Z,101907.38
2023-02-26T01:58:33.471Z,101923.09
2023-02-26T02:03:41.427Z,101927.41
2023-02-26T02:08:47.683Z,101919.97
2023-02-26T02:14:09.285Z,101940.84
2023-02-26T02:19:40.755Z,101938.56
2023-02-26T02:25:12.637Z,101942.94
2023-02-26T02:30:37.245Z,101950.88
2023-02-26T02:35:51.660Z,101957.50
2023-02-26T02:41:04.573Z,101954.44
2023-02-26T02:46:13.264Z,101960.44
2023-02-26T02:51:24.445Z,101966.00
2023-02-26T02:56:35.503Z,101974.91
2023-02-26T03:01:41.762Z,101971.03
2023-02-26T03:06:50.071Z,101980.59
2023-02-26T03:11:55.765Z,101975.53
2023-02-26T03:17:17.257Z,101996.22
2023-02-26T03:22:31.168Z,101998.06
2023-02-26T03:27:45.666Z,102000.81
2023-02-26T03:32:58.467Z,102008.63
2023-02-26T03:38:09.054Z,102017.19
2023-02-26T03:43:20.232Z,102021.34
2023-02-26T03:48:28.830Z,102036.94
2023-02-26T03:53:40.864Z,102040.56
2023-02-26T03:58:53.510Z,102044.03
2023-02-26T04:04:23.298Z,102047.47
2023-02-26T04:09:29.265Z,102049.16
2023-02-26T04:14:33.380Z,102054.47
2023-02-26T04:19:37.533Z,102057.03
2023-02-26T04:24:43.006Z,102070.78
2023-02-26T04:29:48.027Z,102069.28
2023-02-26T04:34:52.323Z,102079.59
2023-02-26T04:39:58.201Z,102091.63
2023-02-26T04:45:02.391Z,102096.75
2023-02-26T04:50:09.016Z,102111.53
2023-02-26T04:55:14.779Z,102113.25
2023-02-26T05:00:20.235Z,102115.03
2023-02-26T05:05:24.745Z,102119.63
2023-02-26T05:10:30.188Z,102125.00
2023-02-26T05:15:34.389Z,102132.94
2023-02-26T05:20:39.042Z,102129.31
2023-02-26T05:25:44.599Z,102132.16
2023-02-26T05:30:48.701Z,102136.50
2023-02-26T05:35:53.244Z,102139.44
2023-02-26T05:41:00.111Z,102144.50
2023-02-26T05:46:04.118Z,102160.59
2023-02-26T05:51:08.188Z,102161.56
2023-02-26T05:56:13.535Z,102158.31
2023-02-26T06:01:17.572Z,102168.38
2023-02-26T06:06:22.057Z,102178.06
2023-02-26T06:11:27.609Z,102182.22
2023-02-26T06:16:32.874Z,102190.97
2023-02-26T06:21:37.197Z,102200.44
2023-02-26T06:26:42.584Z,102218.53
2023-02-26T06:31:46.852Z,102218.53
2023-02-26T06:36:50.882Z,102225.25
2023-02-26T06:41:56.375Z,102239.00
2023-02-26T06:47:00.419Z,102249.06
2023-02-26T06:52:04.482Z,102256.06
2023-02-26T06:57:09.946Z,102274.88
2023-02-26T07:02:20.382Z,102270.56
2023-02-26T07:07:24.409Z,102285.94
2023-02-26T07:12:30.056Z,102297.72
2023-02-26T07:17:34.478Z,102302.91
2023-02-26T07:22:39.195Z,102320.84
2023-02-26T07:27:44.657Z,102324.19
2023-02-26T07:32:48.622Z,102338.72
2023-02-26T07:37:53.196Z,102340.16
2023-02-26T07:42:58.788Z,102358.91
2023-02-26T07:48:02.930Z,102363.03
2023-02-26T07:53:06.997Z,102363.78
2023-02-26T07:58:12.392Z,102361.91
2023-02-26T08:03:16.561Z,102363.38
2023-02-26T08:08:20.678Z,102364.81
2023-02-26T08:13:26.196Z,102378.06
2023-02-26T08:18:30.380Z,102383.97
2023-02-26T08:23:34.835Z,102398.22
2023-02-26T08:28:40.651Z,102400.56
2023-02-26T08:33:45.207Z,102402.13
2023-02-26T08:38:49.317Z,102406.03
2023-02-26T08:43:54.999Z,102411.63
2023-02-26T08:48:59.169Z,102418.75
2023-02-26T08:54:03.363Z,102424.41
2023-02-26T08:59:10.113Z,102403.47
2023-02-26T09:04:14.277Z,102405.03
2023-02-26T09:09:19.336Z,102384.03
2023-02-26T09:14:24.838Z,102373.00
2023-02-26T09:19:29.068Z,102379.88
2023-02-26T09:24:33.246Z,102369.31
2023-02-26T09:29:38.890Z,102360.78
2023-02-26T09:34:42.900Z,102354.91
2023-02-26T09:39:47.908Z,102359.81
2023-02-26T09:44:54.212Z,102368.03
2023-02-26T09:50:06.231Z,102369.25
2023-02-26T09:55:21.458Z,102370.63
2023-02-26T10:00:35.783Z,102385.13
2023-02-26T10:05:46.228Z,102396.63
2023-02-26T10:10:55.191Z,102402.84
2023-02-26T10:16:07.211Z,102413.16
2023-02-26T10:21:16.792Z,102404.38
2023-02-26T10:26:25.532Z,102417.25
2023-02-26T10:31:37.508Z,102415.00
2023-02-26T10:36:49.587Z,102417.44
2023-02-26T10:41:54.718Z,102414.16
2023-02-26T10:47:08.590Z,102402.16
2023-02-26T10:52:17.090Z,102408.56
2023-02-26T10:57:28.777Z,102396.53
2023-02-26T11:02:40.797Z,102398.59
2023-02-26T11:07:47.108Z,102425.94
2023-02-26T11:12:51.094Z,102410.81
2023-02-26T11:17:59.409Z,102406.69
2023-02-26T11:23:06.398Z,102411.84
2023-02-26T11:28:23.741Z,102409.06
2023-02-26T11:33:37.982Z,102414.03
2023-02-26T11:38:46.881Z,102400.66
2023-02-26T11:44:00.683Z,102401.03
2023-02-26T11:49:06.466Z,102401.03
2023-02-26T11:54:24.080Z,102398.47
2023-02-26T11:59:28.227Z,102398.53
2023-02-26T12:04:33.791Z,102391.63
2023-02-26T12:09:39.734Z,102389.84
2023-02-26T12:15:05.134Z,102395.81
2023-02-26T12:20:22.375Z,102396.94
2023-02-26T12:26:12.583Z,102389.09
2023-02-26T12:31:50.001Z,102386.22
2023-02-26T12:37:16.911Z,102372.63
2023-02-26T12:42:33.500Z,102366.84
2023-02-26T12:47:45.247Z,102370.38
2023-02-26T12:53:16.417Z,102388.19
2023-02-26T12:58:51.358Z,102383.34
2023-02-26T13:04:22.133Z,102396.16
2023-02-26T13:09:37.252Z,102396.72
2023-02-26T13:14:53.522Z,102409.59
2023-02-26T13:20:01.422Z,102398.88
2023-02-26T13:25:18.387Z,102393.94
2023-02-26T13:30:30.338Z,102389.41
2023-02-26T13:35:38.371Z,102405.31
2023-02-26T13:41:04.579Z,102397.81
2023-02-26T13:46:28.031Z,102397.22
2023-02-26T13:51:37.782Z,102413.72
2023-02-26T13:56:55.587Z,102405.38
2023-02-26T14:02:04.313Z,102412.59
2023-02-26T14:07:14.970Z,102410.81
2023-02-26T14:12:36.259Z,102409.47
2023-02-26T14:17:41.930Z,102407.88
2023-02-26T14:22:53.221Z,102409.91
2023-02-26T14:28:35.394Z,102411.66
2023-02-26T14:33:49.305Z,102421.53
2023-02-26T14:38:54.676Z,102435.28
2023-02-26T14:44:06.585Z,102424.00
2023-02-26T14:49:19.894Z,102414.78
2023-02-26T14:54:48.811Z,102411.41
2023-02-26T15:00:12.776Z,102425.94
2023-02-26T15:05:36.447Z,102428.38
2023-02-26T15:10:58.822Z,102435.66
2023-02-26T15:16:19.254Z,102444.28
2023-02-26T15:21:34.368Z,102438.47
2023-02-26T15:26:47.859Z,102431.59
2023-02-26T15:31:57.238Z,102442.56
2023-02-26T15:37:02.637Z,102445.72
2023-02-26T15:42:06.842Z,102448.41
2023-02-26T15:47:12.487Z,102452.44
2023-02-26T15:52:20.655Z,102442.13
2023-02-26T15:57:27.104Z,102447.19
2023-02-26T16:02:33.845Z,102454.72
2023-02-26T16:07:38.075Z,102460.91
2023-02-26T16:12:49.270Z,102469.97
2023-02-26T16:17:56.869Z,102460.50
2023-02-26T16:23:05.630Z,102465.50
2023-02-26T16:28:17.870Z,102475.38
2023-02-26T16:33:26.136Z,102475.47
2023-02-26T16:38:46.067Z,102481.53
2023-02-26T16:43:56.804Z,102497.69
2023-02-26T16:49:05.931Z,102506.13
2023-02-26T16:54:17.149Z,102498.72
2023-02-26T16:59:24.025Z,102513.41
2023-02-26T17:04:33.198Z,102524.88
2023-02-26T17:09:40.137Z,102529.72
2023-02-26T17:15:14.566Z,102544.16
2023-02-26T17:20:20.393Z,102552.53
2023-02-26T17:25:25.440Z,102555.44
2023-02-26T17:30:32.096Z,102551.66
2023-02-26T17:35:37.789Z,102570.13
2023-02-26T17:40:44.195Z,102574.78
2023-02-26T17:45:48.303Z,102575.06
2023-02-26T17:50:56.525Z,102571.97
2023-02-26T17:56:01.111Z,102586.13
2023-02-26T18:01:06.228Z,102590.56
2023-02-26T18:06:15.693Z,102600.50
2023-02-26T18:11:24.008Z,102607.97
2023-02-26T18:16:33.311Z,102599.69
2023-02-26T18:21:38.863Z,102606.06
2023-02-26T18:26:43.569Z,102594.13
2023-02-26T18:31:47.665Z,102612.44
2023-02-26T18:36:53.730Z,102624.97
2023-02-26T18:41:57.899Z,102619.38
2023-02-26T18:47:01.963Z,102622.06
2023-02-26T18:52:07.825Z,102625.75
2023-02-26T18:57:12.150Z,102633.75
2023-02-26T19:02:16.298Z,102643.69
2023-02-26T19:07:22.166Z,102648.78
2023-02-26T19:12:26.924Z,102650.88
2023-02-26T19:17:31.059Z,102661.72
2023-02-26T19:22:36.715Z,102664.41
2023-02-26T19:27:41.024Z,102668.03
2023-02-26T19:32:45.185Z,102677.94
2023-02-26T19:37:51.042Z,102681.50
2023-02-26T19:42:55.997Z,102688.34
2023-02-26T19:48:00.272Z,102689.41
2023-02-26T19:53:05.989Z,102700.72
2023-02-26T19:58:10.753Z,102695.56
2023-02-26T20:03:15.368Z,102704.59
2023-02-26T20:08:21.701Z,102693.66
2023-02-26T20:13:29.896Z,102705.16
2023-02-26T20:18:35.336Z,102706.75
2023-02-26T20:23:41.862Z,102709.78
2023-02-26T20:28:46.144Z,102717.00
2023-02-26T20:33:50.291Z,102717.94
2023-02-26T20:38:56.114Z,102722.31
2023-02-26T20:44:00.374Z,102714.81
2023-02-26T20:49:04.683Z,102737.97
2023-02-26T20:54:12.975Z,102743.06
2023-02-26T20:59:17.994Z,102754.31
2023-02-26T21:04:22.600Z,102743.25
2023-02-26T21:09:28.600Z,102750.13
2023-02-26T21:14:32.929Z,102750.91
2023-02-26T21:19:37.132Z,102752.03
2023-02-26T21:24:43.371Z,102761.66
2023-02-26T21:29:47.667Z,102771.13
2023-02-26T21:34:52.033Z,102772.28
2023-02-26T21:39:58.130Z,102767.16
2023-02-26T21:45:02.834Z,102778.53
2023-02-26T21:50:08.219Z,102777.97
2023-02-26T21:55:14.125Z,102786.53
2023-02-26T22:00:20.660Z,102774.75
2023-02-26T22:05:24.860Z,102787.66
2023-02-26T22:10:30.336Z,102791.91
2023-02-26T22:15:34.665Z,102792.59
2023-02-26T22:20:38.810Z,102802.84
2023-02-26T22:25:44.393Z,102790.41
2023-02-26T22:30:48.476Z,102786.19
2023-02-26T22:35:53.279Z,102798.19
2023-02-26T22:40:58.933Z,102783.09
2023-02-26T22:46:03.226Z,102783.22
2023-02-26T22:51:07.448Z,102794.66
2023-02-26T22:56:12.915Z,102792.81
2023-02-26T23:01:16.947Z,102798.88
2023-02-26T23:06:21.017Z,102792.16
2023-02-26T23:11:26.659Z,102791.34
2023-02-26T23:16:31.357Z,102799.09
2023-02-26T23:21:36.436Z,102794.72
2023-02-26T23:26:41.850Z,102799.97
2023-02-26T23:31:46.235Z,102807.53
2023-02-26T23:36:50.333Z,102808.63
2023-02-26T23:41:55.960Z,102810.47
2023-02-26T23:47:00.016Z,102806.19
2023-02-26T23:52:04.129Z,102815.59
2023-02-26T23:57:09.522Z,102812.22
